Time;durP1;ratioP1;P1;durP2;ratioP2;P2;SDS_P1;SDS_P2;PMS_P1;PMS_P2;Temp;Humidity;BMP_temperature;BMP_pressure;BME280_temperature;BME280_humidity;BME280_pressure;Samples;Min_cycle;Max_cycle;Signal;HPM_P1;HPM_P2
2022/01/05 00:03:12;;;;;;;0.50;0.50;;;;;;;7.73;71.10;98221.70;105810;1275;137683;-88
2022/01/05 00:06:40;;;;;;;0.50;0.50;;;;;;;7.69;70.78;98222.95;106281;1274;95161;-87
2022/01/05 00:10:33;;;;;;;0.50;0.40;;;;;;;7.72;70.97;98227.58;105826;1277;138702;-88
2022/01/05 00:14:18;;;;;;;0.50;0.50;;;;;;;7.79;70.81;98235.52;106177;1274;107480;-87
2022/01/05 00:18:07;;;;;;;0.50;0.40;;;;;;;7.77;70.42;98244.63;106247;1274;95252;-88
2022/01/05 00:21:16;;;;;;;0.50;0.40;;;;;;;7.82;70.57;98251.30;106017;1277;138105;-87
2022/01/05 00:24:25;;;;;;;0.50;0.50;;;;;;;7.87;70.45;98257.07;106215;1274;109331;-87
2022/01/05 00:27:56;;;;;;;0.50;0.50;;;;;;;7.73;70.54;98254.58;105456;1281;139613;-88
2022/01/05 00:31:28;;;;;;;0.50;0.50;;;;;;;7.72;70.65;98256.75;105801;1281;95579;-87
2022/01/05 00:34:57;;;;;;;0.60;0.60;;;;;;;7.74;70.72;98261.03;105529;1280;138954;-88
2022/01/05 00:38:08;;;;;;;0.50;0.40;;;;;;;7.71;70.78;98262.77;105743;1281;108066;-88
2022/01/05 00:41:22;;;;;;;0.50;0.50;;;;;;;7.70;70.64;98268.83;105794;1280;138454;-89
2022/01/05 00:44:51;;;;;;;0.50;0.50;;;;;;;7.65;70.68;98272.95;105286;1285;95202;-88
2022/01/05 00:48:22;;;;;;;0.70;0.70;;;;;;;7.61;70.81;98279.69;105203;1286;141194;-87
2022/01/05 00:51:51;;;;;;;0.50;0.50;;;;;;;7.56;71.22;98275.34;105252;1287;107741;-87
2022/01/05 00:55:27;;;;;;;0.50;0.50;;;;;;;7.53;71.11;98284.50;105115;1287;108009;-87
2022/01/05 00:59:16;;;;;;;0.50;0.50;;;;;;;7.51;71.48;98289.17;105084;1287;139361;-87
2022/01/05 01:02:27;;;;;;;0.50;0.50;;;;;;;7.56;71.36;98296.36;105373;1284;95256;-87
2022/01/05 01:04:55;;;;;;;0.50;0.50;;;;;;;7.59;71.37;98299.22;105300;1281;138655;-89
2022/01/05 01:07:45;;;;;;;0.50;0.50;;;;;;;7.51;71.30;98295.67;105623;1278;110392;-87
2022/01/05 01:10:34;;;;;;;0.50;0.50;;;;;;;7.58;71.49;98300.30;105927;1274;139158;-87
2022/01/05 01:14:03;;;;;;;0.50;0.50;;;;;;;7.64;71.37;98303.73;106243;1274;95188;-86
2022/01/05 01:17:13;;;;;;;0.50;0.50;;;;;;;7.65;71.56;98306.52;106019;1277;139783;-87
2022/01/05 01:20:04;;;;;;;0.50;0.50;;;;;;;7.57;71.60;98295.06;106239;1277;110843;-86
2022/01/05 01:22:54;;;;;;;0.50;0.40;;;;;;;7.57;71.57;98295.79;106031;1277;139237;-85
2022/01/05 01:25:52;;;;;;;0.50;0.50;;;;;;;7.59;71.79;98298.36;106237;1277;95749;-88
2022/01/05 01:29:41;;;;;;;0.50;0.50;;;;;;;7.54;71.76;98304.23;105733;1274;137320;-88
2022/01/05 01:32:11;;;;;;;0.50;0.50;;;;;;;7.57;71.83;98312.04;105983;1274;108679;-89
2022/01/05 01:35:20;;;;;;;0.50;0.50;;;;;;;7.51;72.02;98312.28;105475;1281;139843;-89
2022/01/05 01:38:28;;;;;;;0.50;0.50;;;;;;;7.49;72.22;98314.84;105402;1281;95621;-88
2022/01/05 01:41:37;;;;;;;0.50;0.50;;;;;;;7.43;72.26;98321.13;105439;1281;140820;-86
2022/01/05 01:44:19;;;;;;;0.50;0.50;;;;;;;7.49;72.48;98325.82;105733;1281;106355;-87
2022/01/05 01:46:48;;;;;;;0.50;0.40;;;;;;;7.60;72.06;98330.25;105747;1281;138812;-86
2022/01/05 01:50:17;;;;;;;0.50;0.50;;;;;;;7.62;72.06;98335.97;106054;1281;95145;-86
2022/01/05 01:54:07;;;;;;;0.50;0.50;;;;;;;7.70;71.95;98338.94;105450;1274;138577;-89
2022/01/05 01:57:35;;;;;;;0.50;0.50;;;;;;;7.65;71.97;98335.34;106343;1274;109303;-85
2022/01/05 02:00:46;;;;;;;0.50;0.50;;;;;;;7.61;72.20;98328.59;106138;1277;139131;-86
2022/01/05 02:03:15;;;;;;;0.50;0.50;;;;;;;7.67;72.18;98334.68;106062;1277;95315;-86
2022/01/05 02:06:49;;;;;;;0.50;0.50;;;;;;;7.75;72.10;98330.25;106373;1274;138576;-87
2022/01/05 02:09:37;;;;;;;0.50;0.50;;;;;;;7.75;72.34;98326.69;106025;1274;108587;-86
2022/01/05 02:12:50;;;;;;;0.50;0.50;;;;;;;7.69;72.33;98339.00;105620;1277;139079;-89
2022/01/05 02:15:41;;;;;;;0.50;0.50;;;;;;;7.69;72.18;98345.70;106042;1277;95162;-86
2022/01/05 02:19:17;;;;;;;0.50;0.50;;;;;;;7.68;72.35;98354.95;106285;1274;137413;-86
2022/01/05 02:22:16;;;;;;;0.50;0.50;;;;;;;7.57;72.63;98355.30;106169;1277;142008;-87
2022/01/05 02:25:25;;;;;;;0.50;0.50;;;;;;;7.57;72.74;98359.00;105866;1277;138511;-86
2022/01/05 02:28:14;;;;;;;0.50;0.40;;;;;;;7.68;72.66;98347.54;106223;1277;95245;-86
2022/01/05 02:31:45;;;;;;;0.50;0.50;;;;;;;7.79;72.67;98339.20;105425;1284;137765;-87
2022/01/05 02:35:53;;;;;;;0.50;0.50;;;;;;;7.76;72.44;98336.57;105108;1283;138622;-88
2022/01/05 02:39:41;;;;;;;0.50;0.50;;;;;;;7.85;72.36;98343.88;105382;1284;95348;-85
2022/01/05 02:42:50;;;;;;;0.50;0.50;;;;;;;7.78;72.20;98350.94;105504;1284;137382;-86
2022/01/05 02:45:59;;;;;;;0.50;0.50;;;;;;;7.78;72.32;98357.64;106397;1282;106840;-88
2022/01/05 02:49:11;;;;;;;0.50;0.50;;;;;;;7.76;72.52;98367.28;106499;1274;139220;-86
2022/01/05 02:52:23;;;;;;;0.50;0.40;;;;;;;7.75;72.45;98366.44;106963;1274;94857;-86
2022/01/05 02:55:13;;;;;;;0.50;0.50;;;;;;;7.77;72.89;98375.04;106542;1277;137986;-86
2022/01/05 02:58:24;;;;;;;0.50;0.40;;;;;;;7.79;72.66;98379.66;106263;1274;110153;-87
2022/01/05 03:01:13;;;;;;;0.40;0.40;;;;;;;7.84;72.73;98378.38;105957;1274;139003;-86
2022/01/05 03:03:42;;;;;;;0.50;0.40;;;;;;;7.90;72.63;98380.23;106259;1274;95256;-87
2022/01/05 03:06:54;;;;;;;0.50;0.50;;;;;;;7.87;72.61;98383.02;106037;1276;137887;-88
2022/01/05 03:10:25;;;;;;;0.50;0.50;;;;;;;7.83;72.45;98385.48;106268;1277;107755;-88
2022/01/05 03:13:13;;;;;;;0.40;0.40;;;;;;;7.76;72.73;98386.52;106017;1278;138802;-88
2022/01/05 03:16:02;;;;;;;0.50;0.40;;;;;;;7.75;73.12;98392.27;106132;1274;95232;-88
2022/01/05 03:19:31;;;;;;;0.50;0.50;;;;;;;7.76;72.89;98390.80;105908;1274;138618;-89
2022/01/05 03:22:22;;;;;;;0.40;0.40;;;;;;;7.78;73.04;98387.32;106049;1274;106448;-89
2022/01/05 03:25:16;;;;;;;0.60;0.60;;;;;;;7.86;73.07;98389.59;106294;1274;138512;-86
2022/01/05 03:28:04;;;;;;;0.50;0.40;;;;;;;7.88;73.02;98394.11;106364;1274;94865;-86
2022/01/05 03:30:52;;;;;;;0.50;0.50;;;;;;;7.87;73.16;98388.28;106221;1274;138635;-87
2022/01/05 03:33:42;;;;;;;0.50;0.50;;;;;;;7.84;73.18;98382.08;106384;1274;106464;-86
2022/01/05 03:37:10;;;;;;;0.50;0.40;;;;;;;7.85;73.02;98376.23;105827;1277;139037;-87
2022/01/05 03:40:49;;;;;;;0.50;0.50;;;;;;;7.89;72.83;98367.59;106764;1274;94341;-87
2022/01/05 03:43:59;;;;;;;0.50;0.40;;;;;;;7.82;72.83;98350.91;105769;1277;138522;-89
2022/01/05 03:47:52;;;;;;;0.50;0.40;;;;;;;7.88;73.01;98349.59;105799;1274;138132;-88
2022/01/05 03:51:02;;;;;;;0.50;0.40;;;;;;;7.92;72.72;98356.67;105799;1274;108671;-88
2022/01/05 03:54:31;;;;;;;0.50;0.50;;;;;;;7.96;72.81;98359.29;105356;1281;139006;-88
2022/01/05 03:57:19;;;;;;;0.40;0.40;;;;;;;7.99;72.73;98365.11;105741;1281;95132;-86
2022/01/05 04:00:07;;;;;;;0.40;0.40;;;;;;;7.99;72.52;98372.20;105131;1281;140587;-88
2022/01/05 04:03:02;;;;;;;0.50;0.40;;;;;;;7.95;72.83;98375.41;105827;1281;107417;-89
2022/01/05 04:05:31;;;;;;;0.40;0.40;;;;;;;8.00;72.54;98375.30;105699;1281;139095;-87
2022/01/05 04:08:03;;;;;;;0.50;0.50;;;;;;;8.00;72.58;98371.77;105497;1282;95348;-86
2022/01/05 04:11:15;;;;;;;0.50;0.40;;;;;;;7.98;72.49;98366.78;105971;1277;137337;-86
2022/01/05 04:14:35;;;;;;;0.40;0.40;;;;;;;7.88;72.37;98367.77;105805;1274;108907;-89
2022/01/05 04:18:04;;;;;;;0.50;0.50;;;;;;;7.92;72.40;98366.73;105702;1277;137575;-88
2022/01/05 04:21:13;;;;;;;0.40;0.40;;;;;;;7.95;72.13;98368.88;106312;1274;95166;-87
2022/01/05 04:23:42;;;;;;;0.50;0.40;;;;;;;7.82;72.09;98366.83;106297;1274;138359;-85
2022/01/05 04:26:49;;;;;;;0.50;0.50;;;;;;;7.75;72.29;98375.80;106224;1275;108696;-86
2022/01/05 04:29:59;;;;;;;0.50;0.40;;;;;;;7.77;72.52;98373.06;106147;1274;139339;-88
2022/01/05 04:33:40;;;;;;;;;;;;;;;;;;;;;
2022/01/05 04:36:36;;;;;;;0.50;0.50;;;;;;;7.91;72.45;98378.24;105921;1274;138691;-86
2022/01/05 04:39:25;;;;;;;0.50;0.50;;;;;;;8.02;72.02;98388.33;105997;1274;110206;-86
2022/01/05 04:42:36;;;;;;;0.50;0.40;;;;;;;8.08;72.16;98396.67;106014;1274;138884;-86
2022/01/05 04:46:25;;;;;;;0.40;0.40;;;;;;;8.12;71.92;98394.52;106239;1274;95265;-87
2022/01/05 04:50:14;;;;;;;0.40;0.40;;;;;;;8.16;71.72;98396.12;106091;1274;139312;-86
2022/01/05 04:53:19;;;;;;;0.50;0.50;;;;;;;8.17;71.32;98402.77;105877;1274;139074;-86
2022/01/05 04:56:33;;;;;;;0.40;0.40;;;;;;;8.09;71.61;98406.71;106027;1274;95207;-87
2022/01/05 04:59:10;;;;;;;0.50;0.40;;;;;;;8.07;71.66;98409.48;105843;1277;137465;-88
2022/01/05 05:01:59;;;;;;;0.50;0.40;;;;;;;8.03;71.82;98408.91;105894;1276;109488;-88
2022/01/05 05:05:27;;;;;;;0.40;0.40;;;;;;;8.08;71.98;98400.55;105968;1277;108741;-87
2022/01/05 05:09:17;;;;;;;0.50;0.50;;;;;;;8.22;71.42;98403.09;105803;1281;94287;-87
2022/01/05 05:12:26;;;;;;;0.40;0.40;;;;;;;8.35;71.33;98398.77;105676;1281;140868;-87
2022/01/05 05:15:34;;;;;;;0.50;0.50;;;;;;;8.41;71.14;98391.89;105647;1281;109420;-87
2022/01/05 05:19:02;;;;;;;0.50;0.40;;;;;;;8.48;70.83;98393.36;104907;1284;138236;-86
2022/01/05 05:22:31;;;;;;;0.50;0.50;;;;;;;8.58;70.59;98388.06;105345;1284;95238;-87
2022/01/05 05:26:02;;;;;;;0.40;0.40;;;;;;;8.56;70.16;98402.87;104815;1285;138576;-88
2022/01/05 05:29:11;;;;;;;0.50;0.50;;;;;;;8.42;70.44;98431.10;105637;1280;110453;-87
2022/01/05 05:32:01;;;;;;;0.40;0.40;;;;;;;8.35;70.57;98442.77;105742;1281;138673;-87
2022/01/05 05:34:49;;;;;;;0.50;0.40;;;;;;;8.36;70.52;98445.19;105884;1281;95854;-87
2022/01/05 05:37:39;;;;;;;0.50;0.40;;;;;;;8.32;70.45;98436.72;106086;1277;139743;-87
2022/01/05 05:40:10;;;;;;;0.50;0.50;;;;;;;8.30;70.82;98443.91;106302;1274;109511;-87
2022/01/05 05:42:39;;;;;;;0.50;0.50;;;;;;;8.26;70.53;98442.51;106218;1274;139507;-87
2022/01/05 05:45:50;;;;;;;0.50;0.40;;;;;;;8.16;70.72;98455.83;106244;1274;95177;-87
2022/01/05 05:48:40;;;;;;;0.50;0.50;;;;;;;8.16;70.89;98459.93;106269;1274;137105;-87
2022/01/05 05:51:28;;;;;;;0.50;0.50;;;;;;;8.07;70.89;98469.56;106406;1277;109670;-90
2022/01/05 05:54:18;;;;;;;0.50;0.50;;;;;;;8.07;70.84;98473.61;106206;1274;140310;-86
2022/01/05 05:57:57;;;;;;;0.50;0.50;;;;;;;8.04;70.91;98476.05;106285;1274;95241;-88
2022/01/05 06:01:25;;;;;;;0.50;0.40;;;;;;;8.18;71.14;98472.90;105974;1274;138404;-91
2022/01/05 06:04:39;;;;;;;0.40;0.40;;;;;;;8.23;70.56;98471.99;106021;1274;109314;-86
2022/01/05 06:07:11;;;;;;;0.50;0.40;;;;;;;8.25;70.65;98475.77;106006;1274;139484;-86
2022/01/05 06:09:59;;;;;;;0.50;0.50;;;;;;;8.16;70.67;98476.89;106062;1276;95120;-87
2022/01/05 06:13:29;;;;;;;0.50;0.50;;;;;;;8.03;70.80;98477.34;105850;1274;138194;-87
2022/01/05 06:16:19;;;;;;;0.50;0.50;;;;;;;8.11;70.99;98486.31;106183;1274;109585;-86
2022/01/05 06:18:47;;;;;;;0.50;0.50;;;;;;;8.10;70.79;98487.77;106249;1274;138068;-87
2022/01/05 06:21:36;;;;;;;0.50;0.50;;;;;;;8.09;71.00;98491.21;106263;1274;95286;-87
2022/01/05 06:24:53;;;;;;;0.50;0.50;;;;;;;8.04;70.76;98487.71;106206;1274;138131;-86
2022/01/05 06:28:23;;;;;;;0.60;0.60;;;;;;;8.01;71.09;98497.04;106340;1274;109876;-85
2022/01/05 06:31:33;;;;;;;0.50;0.40;;;;;;;8.01;70.96;98505.33;105903;1276;139172;-87
2022/01/05 06:34:42;;;;;;;0.50;0.50;;;;;;;8.01;70.58;98509.58;106402;1277;95227;-86
2022/01/05 06:38:11;;;;;;;0.50;0.50;;;;;;;8.05;70.78;98513.84;105888;1277;137480;-86
2022/01/05 06:41:25;;;;;;;0.50;0.50;;;;;;;8.05;70.84;98514.55;106351;1274;107815;-87
2022/01/05 06:44:56;;;;;;;0.40;0.40;;;;;;;8.03;70.75;98515.50;106200;1276;139170;-86
2022/01/05 06:47:32;;;;;;;0.60;0.60;;;;;;;7.99;70.58;98509.67;106509;1274;95652;-87
2022/01/05 06:51:02;;;;;;;0.50;0.50;;;;;;;8.01;70.75;98510.84;106114;1278;138303;-87
2022/01/05 06:54:52;;;;;;;0.50;0.50;;;;;;;8.08;70.66;98512.29;106417;1277;140218;-87
2022/01/05 06:57:42;;;;;;;0.50;0.50;;;;;;;8.15;70.28;98514.60;106605;1274;109201;-86
2022/01/05 07:00:50;;;;;;;0.50;0.50;;;;;;;8.20;69.99;98519.65;106535;1274;138907;-87
2022/01/05 07:04:43;;;;;;;0.50;0.50;;;;;;;8.22;70.32;98525.75;105582;1281;95362;-88
2022/01/05 07:08:32;;;;;;;0.50;0.40;;;;;;;8.28;69.87;98524.97;105711;1281;138585;-86
2022/01/05 07:11:48;;;;;;;0.50;0.50;;;;;;;8.23;69.71;98517.95;106106;1281;107958;-86
2022/01/05 07:14:38;;;;;;;0.50;0.50;;;;;;;8.16;70.06;98498.13;105931;1282;139043;-87
2022/01/05 07:17:47;;;;;;;0.50;0.50;;;;;;;8.16;70.28;98500.41;105876;1282;95234;-86
2022/01/05 07:20:55;;;;;;;0.50;0.40;;;;;;;8.29;70.17;98514.14;105959;1274;137203;-86
2022/01/05 07:23:45;;;;;;;0.50;0.40;;;;;;;8.34;70.29;98510.72;106518;1277;109203;-88
2022/01/05 07:26:35;;;;;;;0.50;0.40;;;;;;;8.44;69.76;98510.93;106448;1274;138546;-87
2022/01/05 07:29:24;;;;;;;0.50;0.40;;;;;;;8.52;69.40;98508.65;106220;1281;95314;-87
2022/01/05 07:32:35;;;;;;;0.50;0.50;;;;;;;8.48;69.22;98513.09;105969;1280;138415;-87
2022/01/05 07:36:27;;;;;;;0.50;0.50;;;;;;;8.40;69.49;98513.82;106385;1280;108432;-88
2022/01/05 07:39:16;;;;;;;0.50;0.40;;;;;;;8.41;69.43;98511.98;106349;1280;138900;-87
2022/01/05 07:42:49;;;;;;;0.60;0.60;;;;;;;8.43;69.29;98525.50;106126;1280;95265;-86
2022/01/05 07:46:06;;;;;;;0.50;0.50;;;;;;;8.29;69.53;98511.84;106456;1280;108379;-87
2022/01/05 07:48:35;;;;;;;0.50;0.50;;;;;;;8.31;69.86;98507.14;106604;1275;108883;-86
2022/01/05 07:51:29;;;;;;;0.50;0.50;;;;;;;8.47;69.95;98516.45;105939;1274;139472;-89
2022/01/05 07:54:20;;;;;;;0.50;0.50;;;;;;;8.64;69.43;98513.01;106486;1274;94996;-86
2022/01/05 07:56:53;;;;;;;0.40;0.40;;;;;;;8.70;69.32;98520.30;106311;1274;138530;-88
2022/01/05 08:00:16;;;;;;;0.50;0.50;;;;;;;8.72;68.88;98512.64;106468;1274;110168;-86
2022/01/05 08:03:05;;;;;;;0.50;0.50;;;;;;;8.72;68.64;98514.23;106508;1275;138019;-87
2022/01/05 08:05:55;;;;;;;0.50;0.50;;;;;;;8.69;69.08;98509.62;106444;1278;95399;-87
2022/01/05 08:08:45;;;;;;;0.50;0.50;;;;;;;8.58;69.49;98501.10;106605;1274;138659;-87
2022/01/05 08:11:35;;;;;;;0.50;0.50;;;;;;;8.65;69.66;98502.33;106449;1275;107541;-87
2022/01/05 08:14:23;;;;;;;0.50;0.40;;;;;;;8.58;69.39;98498.98;106509;1276;138439;-86
2022/01/05 08:17:16;;;;;;;0.50;0.50;;;;;;;8.53;69.48;98498.17;106522;1274;95142;-86
2022/01/05 08:20:44;;;;;;;0.50;0.40;;;;;;;8.49;69.61;98496.56;106187;1274;137468;-88
2022/01/05 08:23:39;;;;;;;0.50;0.40;;;;;;;8.54;69.74;98492.98;106445;1275;110892;-86
2022/01/05 08:26:12;;;;;;;0.50;0.50;;;;;;;8.60;69.08;98501.54;106443;1274;139605;-86
2022/01/05 08:29:03;;;;;;;0.50;0.50;;;;;;;8.53;69.25;98501.52;106393;1275;95200;-87
2022/01/05 08:31:32;;;;;;;0.50;0.50;;;;;;;8.50;69.58;98507.86;106451;1275;140389;-88
2022/01/05 08:34:21;;;;;;;0.50;0.50;;;;;;;8.51;69.54;98504.63;106649;1274;110079;-86
2022/01/05 08:38:13;;;;;;;0.50;0.40;;;;;;;8.33;69.54;98499.98;106534;1274;138527;-85
2022/01/05 08:41:44;;;;;;;0.50;0.50;;;;;;;8.26;70.12;98500.13;106378;1274;94693;-86
2022/01/05 08:44:55;;;;;;;0.50;0.40;;;;;;;8.21;70.01;98505.12;106646;1274;137665;-86
2022/01/05 08:47:23;;;;;;;0.50;0.50;;;;;;;8.13;70.04;98506.73;106551;1275;108693;-86
2022/01/05 08:50:37;;;;;;;0.50;0.50;;;;;;;8.01;70.53;98508.35;106570;1274;138158;-85
2022/01/05 08:53:47;;;;;;;0.50;0.50;;;;;;;8.01;70.91;98509.73;106742;1274;94788;-86
2022/01/05 08:56:38;;;;;;;0.50;0.50;;;;;;;8.09;70.60;98512.77;106574;1274;139321;-87
2022/01/05 08:59:32;;;;;;;0.50;0.50;;;;;;;8.06;70.94;98508.63;106647;1274;109331;-89
2022/01/05 09:02:00;;;;;;;0.50;0.50;;;;;;;8.15;70.61;98513.90;106324;1274;137380;-87
2022/01/05 09:04:52;;;;;;;0.50;0.40;;;;;;;8.32;70.64;98514.31;106315;1274;95225;-87
2022/01/05 09:07:59;;;;;;;0.50;0.40;;;;;;;8.40;70.30;98513.41;106735;1274;139121;-87
2022/01/05 09:10:27;;;;;;;0.50;0.50;;;;;;;8.32;70.05;98516.67;106698;1274;107410;-86
2022/01/05 09:14:06;;;;;;;0.50;0.50;;;;;;;8.19;70.45;98511.08;105748;1279;95154;-86
2022/01/05 09:17:13;;;;;;;0.50;0.40;;;;;;;8.33;70.62;98513.57;106050;1279;95674;-86
2022/01/05 09:19:42;;;;;;;0.50;0.50;;;;;;;8.35;70.53;98511.37;105916;1279;109198;-88
2022/01/05 09:22:30;;;;;;;0.40;0.40;;;;;;;8.33;70.31;98515.16;106233;1279;137903;-86
2022/01/05 09:25:23;;;;;;;0.50;0.40;;;;;;;8.30;70.31;98512.31;106285;1279;95391;-88
2022/01/05 09:28:19;;;;;;;0.50;0.40;;;;;;;8.38;70.33;98513.18;106482;1279;138531;-87
2022/01/05 09:30:53;;;;;;;0.50;0.40;;;;;;;8.46;70.07;98509.98;106672;1278;108552;-88
2022/01/05 09:34:29;;;;;;;0.50;0.50;;;;;;;8.48;69.76;98509.91;106384;1279;137665;-87
2022/01/05 09:37:51;;;;;;;0.50;0.40;;;;;;;8.55;70.04;98506.02;106914;1274;95154;-86
2022/01/05 09:44:05;;;;;;;0.50;0.50;;;;;;;8.48;69.82;98502.80;106575;1274;108322;-87
2022/01/05 09:47:02;;;;;;;0.40;0.40;;;;;;;8.55;69.34;98503.05;106281;1277;138119;-86
2022/01/05 09:50:25;;;;;;;0.50;0.50;;;;;;;8.52;69.49;98505.11;106468;1274;95032;-87
2022/01/05 09:53:14;;;;;;;0.50;0.50;;;;;;;8.55;69.51;98510.46;106721;1274;95118;-86
2022/01/05 09:55:45;;;;;;;0.50;0.40;;;;;;;8.57;69.53;98507.72;106374;1276;108902;-88
2022/01/05 09:59:16;;;;;;;0.50;0.40;;;;;;;8.59;69.51;98506.38;106641;1274;138675;-85
2022/01/05 10:02:28;;;;;;;0.50;0.40;;;;;;;8.57;69.08;98516.04;106619;1276;94485;-88
2022/01/05 10:05:18;;;;;;;0.40;0.40;;;;;;;8.40;69.27;98520.16;105906;1276;139393;-88
2022/01/05 10:08:28;;;;;;;0.50;0.40;;;;;;;8.41;69.59;98517.14;106224;1276;109284;-88
2022/01/05 10:10:56;;;;;;;0.40;0.40;;;;;;;8.48;69.66;98518.37;106277;1276;137365;-86
2022/01/05 10:13:44;;;;;;;0.50;0.50;;;;;;;8.43;69.39;98517.90;106637;1274;94117;-86
2022/01/05 10:16:36;;;;;;;0.50;0.50;;;;;;;8.46;69.52;98523.42;106540;1274;139989;-87
2022/01/05 10:20:06;;;;;;;0.50;0.40;;;;;;;8.52;69.66;98522.77;105446;1284;138487;-86
2022/01/05 10:23:38;;;;;;;0.50;0.50;;;;;;;8.37;69.50;98517.98;105992;1283;108816;-86
2022/01/05 10:26:32;;;;;;;0.60;0.60;;;;;;;8.39;70.02;98517.23;105502;1282;140361;-85
2022/01/05 10:29:21;;;;;;;0.50;0.50;;;;;;;8.48;69.74;98518.37;105884;1282;95547;-86
2022/01/05 10:32:10;;;;;;;0.40;0.40;;;;;;;8.53;69.43;98513.70;105487;1282;139851;-88
2022/01/05 10:35:13;;;;;;;0.50;0.50;;;;;;;8.59;69.19;98504.59;105348;1284;111421;-88
2022/01/05 10:38:04;;;;;;;0.50;0.50;;;;;;;8.57;69.05;98500.29;105425;1283;139123;-86
2022/01/05 10:40:52;;;;;;;0.40;0.40;;;;;;;8.58;69.11;98499.15;105801;1282;95091;-87
2022/01/05 10:43:24;;;;;;;0.40;0.40;;;;;;;8.58;69.24;98503.77;106127;1277;137395;-85
2022/01/05 10:46:35;;;;;;;0.50;0.50;;;;;;;8.55;69.10;98496.46;106857;1276;110718;-86
2022/01/05 10:49:31;;;;;;;0.50;0.50;;;;;;;8.51;69.48;98503.36;106630;1276;138495;-85
2022/01/05 10:52:28;;;;;;;0.50;0.40;;;;;;;8.61;69.59;98490.15;106532;1277;95394;-88
2022/01/05 10:55:25;;;;;;;0.40;0.40;;;;;;;8.70;69.38;98495.77;106944;1276;137130;-86
2022/01/05 10:58:44;;;;;;;0.50;0.50;;;;;;;8.74;69.15;98487.75;106327;1276;108182;-85
2022/01/05 11:01:35;;;;;;;0.40;0.40;;;;;;;8.68;69.53;98483.09;106179;1276;138917;-85
2022/01/05 11:04:31;;;;;;;0.50;0.40;;;;;;;8.71;69.71;98487.76;106158;1276;95141;-85
2022/01/05 11:07:31;;;;;;;0.50;0.40;;;;;;;8.65;69.82;98486.62;106188;1278;138006;-87
2022/01/05 11:10:41;;;;;;;0.50;0.50;;;;;;;8.62;69.98;98482.52;106359;1276;108287;-86
2022/01/05 11:13:15;;;;;;;0.60;0.60;;;;;;;8.66;69.99;98476.80;106262;1276;138243;-87
2022/01/05 11:15:46;;;;;;;0.50;0.50;;;;;;;8.67;69.70;98471.29;106591;1276;95249;-86
2022/01/05 11:18:35;;;;;;;0.50;0.50;;;;;;;8.65;70.32;98460.05;106187;1276;139710;-86
2022/01/05 11:21:19;;;;;;;0.50;0.50;;;;;;;8.63;70.14;98457.71;106361;1276;108694;-86
2022/01/05 11:23:51;;;;;;;0.50;0.40;;;;;;;8.59;70.46;98462.88;106321;1278;94329;-87
2022/01/05 11:26:48;;;;;;;0.50;0.40;;;;;;;8.59;70.40;98461.60;106235;1276;138352;-89
2022/01/05 11:29:51;;;;;;;0.60;0.60;;;;;;;8.53;70.33;98464.91;106440;1277;107929;-87
2022/01/05 11:33:00;;;;;;;0.40;0.40;;;;;;;8.44;70.99;98465.52;105416;1283;137934;-87
2022/01/05 11:35:49;;;;;;;0.50;0.40;;;;;;;8.28;71.09;98477.04;105842;1282;95144;-86
2022/01/05 11:39:03;;;;;;;0.50;0.40;;;;;;;8.12;71.29;98477.24;106019;1282;139716;-87
2022/01/05 11:42:15;;;;;;;0.40;0.40;;;;;;;8.15;71.89;98477.48;105154;1287;106484;-85
2022/01/05 11:45:31;;;;;;;0.50;0.40;;;;;;;8.14;71.55;98469.92;105105;1288;138831;-87
2022/01/05 11:48:30;;;;;;;0.50;0.50;;;;;;;8.10;71.83;98462.19;105160;1288;95506;-88
2022/01/05 11:51:42;;;;;;;0.50;0.40;;;;;;;8.07;72.06;98457.17;105051;1283;138260;-87
2022/01/05 11:55:22;;;;;;;0.50;0.40;;;;;;;8.08;72.10;98457.13;104669;1287;140231;-88
2022/01/05 11:58:14;;;;;;;0.40;0.40;;;;;;;8.10;72.33;98465.02;104919;1288;110492;-88
2022/01/05 12:01:41;;;;;;;0.40;0.40;;;;;;;8.14;72.37;98464.82;105642;1282;138671;-87
2022/01/05 12:04:56;;;;;;;0.50;0.50;;;;;;;8.08;72.96;98460.70;104775;1282;95439;-89
2022/01/05 12:11:34;;;;;;;0.50;0.40;;;;;;;8.26;72.57;98452.39;105755;1282;110020;-86
2022/01/05 12:14:52;;;;;;;0.40;0.40;;;;;;;8.18;72.12;98460.19;106049;1276;139064;-89
2022/01/05 12:17:42;;;;;;;0.50;0.50;;;;;;;7.99;72.71;98459.83;106436;1276;95156;-87
2022/01/05 12:20:52;;;;;;;0.50;0.40;;;;;;;7.95;72.36;98445.73;106115;1276;138784;-88
2022/01/05 12:25:03;;;;;;;0.50;0.50;;;;;;;7.89;72.38;98446.73;106583;1276;108707;-88
2022/01/05 12:28:15;;;;;;;0.40;0.40;;;;;;;7.93;72.77;98437.52;105632;1286;95323;-87
2022/01/05 12:31:42;;;;;;;0.50;0.40;;;;;;;7.91;72.38;98433.72;105339;1287;95203;-88
2022/01/05 12:34:52;;;;;;;0.50;0.50;;;;;;;7.88;72.33;98420.09;105477;1286;108773;-87
2022/01/05 12:37:56;;;;;;;0.50;0.40;;;;;;;7.94;72.31;98415.02;104794;1291;107418;-88
2022/01/05 12:41:31;;;;;;;0.50;0.40;;;;;;;7.96;72.32;98418.48;106017;1283;94766;-87
2022/01/05 12:44:43;;;;;;;0.50;0.40;;;;;;;7.95;72.17;98419.41;105959;1280;139504;-87
2022/01/05 12:52:12;;;;;;;0.40;0.40;;;;;;;7.95;72.02;98431.05;105311;1288;138826;-88
2022/01/05 12:55:04;;;;;;;0.50;0.40;;;;;;;7.97;71.93;98436.80;105409;1283;95373;-89
2022/01/05 12:57:58;;;;;;;0.50;0.40;;;;;;;7.95;72.05;98441.13;105927;1284;139335;-89
2022/01/05 13:01:51;;;;;;;0.50;0.50;;;;;;;8.03;72.01;98433.67;105634;1282;107743;-88
2022/01/05 13:05:08;;;;;;;0.50;0.50;;;;;;;8.15;72.17;98445.30;105395;1282;138579;-88
2022/01/05 13:08:48;;;;;;;0.50;0.40;;;;;;;8.17;72.03;98442.92;105676;1277;95333;-88
2022/01/05 13:12:48;;;;;;;0.40;0.40;;;;;;;8.15;71.39;98450.62;106595;1276;95337;-86
2022/01/05 13:16:02;;;;;;;0.50;0.40;;;;;;;8.05;71.56;98449.30;106356;1277;137406;-87
2022/01/05 13:19:43;;;;;;;0.50;0.50;;;;;;;7.94;71.17;98454.63;106516;1279;108582;-87
2022/01/05 13:23:15;;;;;;;0.50;0.50;;;;;;;7.98;71.72;98456.70;106230;1281;139138;-88
2022/01/05 13:27:34;;;;;;;0.50;0.40;;;;;;;8.06;71.84;98454.08;106274;1279;94364;-87
2022/01/05 13:31:09;;;;;;;0.50;0.50;;;;;;;8.10;71.33;98460.02;105809;1284;108188;-86
2022/01/05 13:34:50;;;;;;;0.50;0.50;;;;;;;8.11;71.28;98465.84;106293;1280;138608;-88
2022/01/05 13:37:57;;;;;;;0.50;0.40;;;;;;;8.17;71.10;98460.23;106234;1279;95046;-88
2022/01/05 13:41:37;;;;;;;0.50;0.40;;;;;;;8.09;71.41;98449.13;105459;1279;137627;-88
2022/01/05 13:45:17;;;;;;;0.50;0.40;;;;;;;8.06;71.17;98464.47;106364;1276;108706;-89
2022/01/05 13:48:46;;;;;;;;;;;;;;;;;;;;;
2022/01/05 13:52:50;;;;;;;;;;;;;;;;;;;;;
2022/01/05 13:55:54;;;;;;;0.50;0.50;;;;;;;7.88;70.67;98482.98;106564;1276;94918;-89
2022/01/05 13:58:57;;;;;;;;;;;;;;;;;;;;;
2022/01/05 14:02:21;;;;;;;0.60;0.60;;;;;;;7.90;70.04;98495.98;106431;1277;108688;-87
2022/01/05 14:06:43;;;;;;;0.50;0.50;;;;;;;8.04;69.95;98499.73;105958;1277;138020;-90
2022/01/05 14:09:39;;;;;;;0.50;0.50;;;;;;;8.03;69.47;98491.45;106335;1277;95219;-88
2022/01/05 14:12:55;;;;;;;0.70;0.70;;;;;;;7.95;69.27;98492.73;106450;1276;138362;-88
2022/01/05 14:15:29;;;;;;;0.60;0.60;;;;;;;7.82;68.44;98493.13;106550;1277;110245;-88
2022/01/05 14:18:27;;;;;;;0.60;0.60;;;;;;;7.70;68.31;98504.10;106184;1276;138256;-88
2022/01/05 14:22:17;;;;;;;0.60;0.60;;;;;;;7.58;68.51;98520.05;106117;1277;153713;-88
2022/01/05 14:26:25;;;;;;;0.60;0.60;;;;;;;7.49;68.16;98534.70;105327;1280;136929;-90
2022/01/05 14:29:38;;;;;;;0.50;0.50;;;;;;;7.35;69.02;98547.83;106534;1277;139509;-89
2022/01/05 14:32:23;;;;;;;0.60;0.60;;;;;;;7.26;68.48;98561.64;106473;1277;94217;-88
2022/01/05 14:36:11;;;;;;;0.50;0.50;;;;;;;7.10;68.91;98561.62;106453;1277;138919;-88
2022/01/05 14:39:05;;;;;;;0.60;0.60;;;;;;;6.99;68.55;98569.09;106384;1279;108676;-88
2022/01/05 14:42:04;;;;;;;0.60;0.60;;;;;;;6.99;68.82;98566.84;106191;1276;138328;-88
2022/01/05 14:44:38;;;;;;;0.60;0.60;;;;;;;6.99;68.74;98567.70;106396;1277;95158;-90
2022/01/05 14:47:35;;;;;;;0.60;0.60;;;;;;;6.90;68.48;98577.25;106079;1277;138219;-90
2022/01/05 14:50:42;;;;;;;0.60;0.60;;;;;;;6.83;68.57;98574.70;106353;1277;108013;-90
2022/01/05 14:53:44;;;;;;;;;;;;;;;;;;;;;
2022/01/05 14:57:24;;;;;;;0.60;0.60;;;;;;;6.93;68.66;98581.86;106554;1277;95205;-89
2022/01/05 14:59:55;;;;;;;0.60;0.60;;;;;;;6.82;68.45;98589.92;105844;1277;138586;-89